createdAt,value
2018-10-12T00:00:34.530Z,0.00
2018-10-12T00:01:34.489Z,0.00
2018-10-12T00:02:34.478Z,0.00
2018-10-12T00:03:34.478Z,0.00
2018-10-12T00:04:34.454Z,0.00
2018-10-12T00:05:34.481Z,0.00
2018-10-12T00:06:34.433Z,0.00
2018-10-12T00:07:34.425Z,0.00
2018-10-12T00:08:34.411Z,0.00
2018-10-12T00:09:34.437Z,0.00
2018-10-12T00:10:34.410Z,0.00
2018-10-12T00:11:34.378Z,0.00
2018-10-12T00:12:34.366Z,0.00
2018-10-12T00:13:34.355Z,0.00
2018-10-12T00:14:34.366Z,0.00
2018-10-12T00:15:34.342Z,0.00
2018-10-12T00:16:34.323Z,0.00
2018-10-12T00:17:34.311Z,0.00
2018-10-12T00:18:34.300Z,0.00
2018-10-12T00:19:34.310Z,0.00
2018-10-12T00:20:34.278Z,0.00
2018-10-12T00:21:34.310Z,0.00
2018-10-12T00:22:34.255Z,0.00
2018-10-12T00:23:34.246Z,0.00
2018-10-12T00:24:34.234Z,0.00
2018-10-12T00:25:34.222Z,0.00
2018-10-12T00:26:34.233Z,0.00
2018-10-12T00:27:34.248Z,0.00
2018-10-12T00:28:34.223Z,0.00
2018-10-12T00:29:34.177Z,0.00
2018-10-12T00:30:34.166Z,0.00
2018-10-12T00:31:34.155Z,0.00
2018-10-12T00:32:34.166Z,0.00
2018-10-12T00:33:34.159Z,0.00
2018-10-12T00:34:34.123Z,0.00
2018-10-12T00:35:34.140Z,0.00
2018-10-12T00:36:34.099Z,0.00
2018-10-12T00:37:34.088Z,0.00
2018-10-12T00:38:34.080Z,0.00
2018-10-12T00:39:34.083Z,0.00
2018-10-12T00:40:34.081Z,0.00
2018-10-12T00:41:34.044Z,0.00
2018-10-12T00:42:34.033Z,0.00
2018-10-12T00:43:34.036Z,0.00
2018-10-12T00:44:34.011Z,0.00
2018-10-12T00:45:34.025Z,0.00
2018-10-12T00:46:33.990Z,0.00
2018-10-12T00:47:33.998Z,0.00
2018-10-12T00:48:33.988Z,0.00
2018-10-12T00:49:33.958Z,0.00
2018-10-12T00:50:33.948Z,0.00
2018-10-12T00:51:33.976Z,0.00
2018-10-12T00:52:33.921Z,0.00
2018-10-12T00:53:33.932Z,0.00
2018-10-12T00:54:33.900Z,0.00
2018-10-12T00:55:33.912Z,0.00
2018-10-12T00:56:33.881Z,0.00
2018-10-12T00:57:33.897Z,0.00
2018-10-12T00:58:33.885Z,0.00
2018-10-12T00:59:33.845Z,0.00
2018-10-12T01:00:33.833Z,0.00
2018-10-12T01:01:33.824Z,0.00
2018-10-12T01:02:33.812Z,0.00
2018-10-12T01:03:33.835Z,0.00
2018-10-12T01:04:33.790Z,0.00
2018-10-12T01:05:33.777Z,0.00
2018-10-12T01:06:33.835Z,0.00
2018-10-12T01:07:33.756Z,0.00
2018-10-12T01:08:33.760Z,0.00
2018-10-12T01:09:33.769Z,0.00
2018-10-12T01:10:33.785Z,0.00
2018-10-12T01:11:33.712Z,0.00
2018-10-12T01:12:33.700Z,0.00
2018-10-12T01:13:33.702Z,0.00
2018-10-12T01:14:33.701Z,0.00
2018-10-12T01:15:33.672Z,0.00
2018-10-12T01:16:33.677Z,0.00
2018-10-12T01:17:33.644Z,0.00
2018-10-12T01:18:33.636Z,0.00
2018-10-12T01:19:33.621Z,0.00
2018-10-12T01:20:33.610Z,0.00
2018-10-12T01:21:33.634Z,0.00
2018-10-12T01:22:33.622Z,0.00
2018-10-12T01:23:33.603Z,0.00
2018-10-12T01:24:33.567Z,0.00
2018-10-12T01:25:33.583Z,0.00
2018-10-12T01:26:33.543Z,0.00
2018-10-12T01:27:33.546Z,0.00
2018-10-12T01:28:33.521Z,0.00
2018-10-12T01:29:33.510Z,0.00
2018-10-12T01:30:33.524Z,0.00
2018-10-12T01:31:33.488Z,0.00
2018-10-12T01:32:33.476Z,0.00
2018-10-12T01:33:33.509Z,0.00
2018-10-12T01:34:33.554Z,0.00
2018-10-12T01:35:33.488Z,0.00
2018-10-12T01:36:33.433Z,0.00
2018-10-12T01:37:33.423Z,0.00
2018-10-12T01:38:33.410Z,0.00
2018-10-12T01:39:33.400Z,0.00
2018-10-12T01:40:33.441Z,0.00
2018-10-12T01:41:33.380Z,0.00
2018-10-12T01:42:33.366Z,0.00
2018-10-12T01:43:33.355Z,0.00
2018-10-12T01:44:33.344Z,0.00
2018-10-12T01:45:33.360Z,0.00
2018-10-12T01:46:33.358Z,0.00
2018-10-12T01:47:33.312Z,0.00
2018-10-12T01:48:33.299Z,0.00
2018-10-12T01:49:33.290Z,0.00
2018-10-12T01:50:33.282Z,0.00
2018-10-12T01:51:33.309Z,0.00
2018-10-12T01:52:33.268Z,0.00
2018-10-12T01:53:33.244Z,0.00
2018-10-12T01:54:33.233Z,0.00
2018-10-12T01:55:33.223Z,0.00
2018-10-12T01:56:33.238Z,0.00
2018-10-12T01:57:33.200Z,0.00
2018-10-12T01:58:33.230Z,0.00
2018-10-12T01:59:33.205Z,0.00
2018-10-12T02:00:33.172Z,0.00
2018-10-12T02:01:33.156Z,0.00
2018-10-12T02:02:33.146Z,0.00
2018-10-12T02:03:33.159Z,0.00
2018-10-12T02:04:33.137Z,0.00
2018-10-12T02:05:33.114Z,0.00
2018-10-12T02:06:33.100Z,0.00
2018-10-12T02:07:33.095Z,0.00
2018-10-12T02:08:33.104Z,0.00
2018-10-12T02:09:33.067Z,0.00
2018-10-12T02:10:33.083Z,0.00
2018-10-12T02:11:33.048Z,0.00
2018-10-12T02:12:33.043Z,0.00
2018-10-12T02:13:33.052Z,0.00
2018-10-12T02:14:33.017Z,0.00
2018-10-12T02:15:33.002Z,0.00
2018-10-12T02:16:33.003Z,0.00
2018-10-12T02:17:32.980Z,0.00
2018-10-12T02:18:33.002Z,0.00
2018-10-12T02:19:32.957Z,0.00
2018-10-12T02:20:32.947Z,0.00
2018-10-12T02:21:32.936Z,0.00
2018-10-12T02:22:32.931Z,0.00
2018-10-12T02:23:32.941Z,0.00
2018-10-12T02:24:32.929Z,0.00
2018-10-12T02:25:32.891Z,0.00
2018-10-12T02:26:32.882Z,0.00
2018-10-12T02:27:32.869Z,0.00
2018-10-12T02:28:32.871Z,0.00
2018-10-12T02:29:32.878Z,0.00
2018-10-12T02:30:32.841Z,0.00
2018-10-12T02:31:32.824Z,0.00
2018-10-12T02:32:32.813Z,0.00
2018-10-12T02:33:32.809Z,0.00
2018-10-12T02:34:32.837Z,0.00
2018-10-12T02:35:32.780Z,0.00
2018-10-12T02:36:32.769Z,0.00
2018-10-12T02:37:32.758Z,0.00
2018-10-12T02:38:32.747Z,0.00
2018-10-12T02:39:32.759Z,0.00
2018-10-12T02:40:32.742Z,0.00
2018-10-12T02:41:32.713Z,0.00
2018-10-12T02:42:32.703Z,0.00
2018-10-12T02:43:32.709Z,0.00
2018-10-12T02:44:32.723Z,0.00
2018-10-12T02:45:32.671Z,0.00
2018-10-12T02:46:32.677Z,0.00
2018-10-12T02:47:32.651Z,0.00
2018-10-12T02:48:32.640Z,0.00
2018-10-12T02:49:32.650Z,0.00
2018-10-12T02:50:32.640Z,0.00
2018-10-12T02:51:32.603Z,0.00
2018-10-12T02:52:32.609Z,0.00
2018-10-12T02:53:32.581Z,0.00
2018-10-12T02:54:32.570Z,0.00
2018-10-12T02:55:32.585Z,0.00
2018-10-12T02:56:32.548Z,0.00
2018-10-12T02:57:32.537Z,0.00
2018-10-12T02:58:32.553Z,0.00
2018-10-12T02:59:32.517Z,0.00
2018-10-12T03:00:32.504Z,0.00
2018-10-12T03:01:32.493Z,0.00
2018-10-12T03:02:32.481Z,0.00
2018-10-12T03:03:32.496Z,0.00
2018-10-12T03:04:32.465Z,0.00
2018-10-12T03:05:32.448Z,0.00
2018-10-12T03:06:32.437Z,0.00
2018-10-12T03:07:32.430Z,0.00
2018-10-12T03:08:32.449Z,0.00
2018-10-12T03:09:32.404Z,0.00
2018-10-12T03:10:32.422Z,0.00
2018-10-12T03:11:32.396Z,0.00
2018-10-12T03:12:32.371Z,0.00
2018-10-12T03:13:32.396Z,0.00
2018-10-12T03:14:32.347Z,0.00
2018-10-12T03:15:32.337Z,0.00
2018-10-12T03:16:32.331Z,0.00
2018-10-12T03:17:32.327Z,0.00
2018-10-12T03:18:32.329Z,0.00
2018-10-12T03:19:32.295Z,0.00
2018-10-12T03:20:32.308Z,0.00
2018-10-12T03:21:32.275Z,0.00
2018-10-12T03:22:32.261Z,0.00
2018-10-12T03:23:32.256Z,0.00
2018-10-12T03:24:32.248Z,0.00
2018-10-12T03:25:32.254Z,0.00
2018-10-12T03:26:32.220Z,0.00
2018-10-12T03:27:32.203Z,0.00
2018-10-12T03:28:32.193Z,0.00
2018-10-12T03:29:32.183Z,0.00
2018-10-12T03:30:32.211Z,0.00
2018-10-12T03:31:32.160Z,0.00
2018-10-12T03:32:32.150Z,0.00
2018-10-12T03:33:32.137Z,0.00
2018-10-12T03:34:32.128Z,0.00
2018-10-12T03:35:32.146Z,0.00
2018-10-12T03:36:32.113Z,0.00
2018-10-12T03:37:32.124Z,0.00
2018-10-12T03:38:32.082Z,0.00
2018-10-12T03:39:32.090Z,0.00
2018-10-12T03:40:32.061Z,0.00
2018-10-12T03:41:32.059Z,0.00
2018-10-12T03:42:32.178Z,0.00
2018-10-12T03:43:32.027Z,0.00
2018-10-12T03:44:32.016Z,0.00
2018-10-12T03:45:32.004Z,0.00
2018-10-12T03:46:31.993Z,0.00
2018-10-12T03:47:32.027Z,0.00
2018-10-12T03:48:31.985Z,0.00
2018-10-12T03:49:31.961Z,0.00
2018-10-12T03:50:31.950Z,0.00
2018-10-12T03:51:31.940Z,0.00
2018-10-12T03:52:31.956Z,0.00
2018-10-12T03:53:31.944Z,0.00
2018-10-12T03:54:31.914Z,0.00
2018-10-12T03:55:31.895Z,0.00
2018-10-12T03:56:31.884Z,0.00
2018-10-12T03:57:31.875Z,0.00
2018-10-12T03:58:31.891Z,0.00
2018-10-12T03:59:31.850Z,0.00
2018-10-12T04:00:31.877Z,0.00
2018-10-12T04:01:31.829Z,0.00
2018-10-12T04:02:31.856Z,0.00
2018-10-12T04:03:31.804Z,0.00
2018-10-12T04:04:31.795Z,0.00
2018-10-12T04:05:31.824Z,0.00
2018-10-12T04:06:31.779Z,0.00
2018-10-12T04:07:31.761Z,0.00
2018-10-12T04:08:31.750Z,0.00
2018-10-12T04:09:31.738Z,0.00
2018-10-12T04:10:31.755Z,0.00
2018-10-12T04:11:31.715Z,0.00
2018-10-12T04:12:31.815Z,0.00
2018-10-12T04:13:31.704Z,0.00
2018-10-12T04:14:31.712Z,0.00
2018-10-12T04:15:31.671Z,0.00
2018-10-12T04:16:31.661Z,0.00
2018-10-12T04:17:31.649Z,0.00
2018-10-12T04:18:31.648Z,0.00
2018-10-12T04:19:31.653Z,0.00
2018-10-12T04:20:31.617Z,0.00
2018-10-12T04:21:31.632Z,0.00
2018-10-12T04:22:31.593Z,0.00
2018-10-12T04:23:31.583Z,0.00
2018-10-12T04:24:31.575Z,0.00
2018-10-12T04:25:31.562Z,0.00
2018-10-12T04:26:31.577Z,0.00
2018-10-12T04:27:31.556Z,0.00
2018-10-12T04:28:31.573Z,0.00
2018-10-12T04:29:31.525Z,0.00
2018-10-12T04:30:31.505Z,0.00
2018-10-12T04:31:31.560Z,0.00
2018-10-12T04:32:31.483Z,0.00
2018-10-12T04:33:31.480Z,0.00
2018-10-12T04:34:31.473Z,0.00
2018-10-12T04:35:31.452Z,0.00
2018-10-12T04:36:31.470Z,0.00
2018-10-12T04:37:31.469Z,0.00
2018-10-12T04:38:31.420Z,0.00
2018-10-12T04:39:31.405Z,0.00
2018-10-12T04:40:31.398Z,0.00
2018-10-12T04:41:31.388Z,0.00
2018-10-12T04:42:31.405Z,0.00
2018-10-12T04:43:31.398Z,0.00
2018-10-12T04:44:31.351Z,0.00
2018-10-12T04:45:31.338Z,0.00
2018-10-12T04:46:31.332Z,0.00
2018-10-12T04:47:31.322Z,0.00
2018-10-12T04:48:31.339Z,0.00
2018-10-12T04:49:31.295Z,0.00
2018-10-12T04:50:31.282Z,0.00
2018-10-12T04:51:31.280Z,0.00
2018-10-12T04:52:31.291Z,0.00
2018-10-12T04:53:31.264Z,0.00
2018-10-12T04:54:31.259Z,0.00
2018-10-12T04:55:31.232Z,0.00
2018-10-12T04:56:31.270Z,0.00
2018-10-12T04:57:31.245Z,0.00
2018-10-12T04:58:31.228Z,0.00
2018-10-12T04:59:31.226Z,0.00
2018-10-12T05:00:31.213Z,0.00
2018-10-12T05:01:31.169Z,0.00
2018-10-12T05:02:31.176Z,0.00
2018-10-12T05:03:31.149Z,0.00
2018-10-12T05:04:31.166Z,0.00
2018-10-12T05:05:31.116Z,0.00
2018-10-12T05:06:31.117Z,0.00
2018-10-12T05:07:31.106Z,0.00
2018-10-12T05:08:31.082Z,0.00
2018-10-12T05:09:31.118Z,4.00
2018-10-12T05:10:31.067Z,0.00
2018-10-12T05:11:31.055Z,4.00
2018-10-12T05:12:31.037Z,0.00
2018-10-12T05:13:31.027Z,4.00
2018-10-12T05:14:31.051Z,4.00
2018-10-12T05:15:31.016Z,4.00
2018-10-12T05:16:30.993Z,8.00
2018-10-12T05:17:30.988Z,8.00
2018-10-12T05:18:30.981Z,4.00
2018-10-12T05:19:31.004Z,8.00
2018-10-12T05:20:30.951Z,8.00
2018-10-12T05:21:30.936Z,12.00
2018-10-12T05:22:30.925Z,12.00
2018-10-12T05:23:30.931Z,16.00
2018-10-12T05:24:30.928Z,20.00
2018-10-12T05:25:30.936Z,20.00
2018-10-12T05:26:30.881Z,24.00
2018-10-12T05:27:30.870Z,28.00
2018-10-12T05:28:30.858Z,28.00
2018-10-12T05:29:30.875Z,36.00
2018-10-12T05:30:30.869Z,40.00
2018-10-12T05:31:30.825Z,44.00
2018-10-12T05:32:30.814Z,52.00
2018-10-12T05:33:30.802Z,60.00
2018-10-12T05:34:30.792Z,64.00
2018-10-12T05:35:30.814Z,68.00
2018-10-12T05:36:30.799Z,76.00
2018-10-12T05:37:30.758Z,88.00
2018-10-12T05:38:30.750Z,96.00
2018-10-12T05:39:30.738Z,108.00
2018-10-12T05:40:30.724Z,116.00
2018-10-12T05:41:30.746Z,124.00
2018-10-12T05:42:30.703Z,136.00
2018-10-12T05:43:30.852Z,144.00
2018-10-12T05:44:30.681Z,156.00
2018-10-12T05:45:30.669Z,168.00
2018-10-12T05:46:30.683Z,180.00
2018-10-12T05:47:30.647Z,196.00
2018-10-12T05:48:30.635Z,208.00
2018-10-12T05:49:30.632Z,220.00
2018-10-12T05:50:30.628Z,236.00
2018-10-12T05:51:30.640Z,252.00
2018-10-12T05:52:30.592Z,268.00
2018-10-12T05:53:30.594Z,284.00
2018-10-12T05:54:30.568Z,300.00
2018-10-12T05:55:30.568Z,316.00
2018-10-12T05:56:30.577Z,332.00
2018-10-12T05:57:30.580Z,352.00
2018-10-12T05:58:30.595Z,364.00
2018-10-12T05:59:30.513Z,380.00
2018-10-12T06:00:30.510Z,396.00
2018-10-12T06:01:30.581Z,408.00
2018-10-12T06:02:30.506Z,424.00
2018-10-12T06:03:30.488Z,436.00
2018-10-12T06:04:30.465Z,448.00
2018-10-12T06:05:30.454Z,464.00
2018-10-12T06:06:30.497Z,476.00
2018-10-12T06:07:30.453Z,492.00
2018-10-12T06:08:30.417Z,504.00
2018-10-12T06:09:30.425Z,516.00
2018-10-12T06:10:30.415Z,528.00
2018-10-12T06:11:30.448Z,540.00
2018-10-12T06:12:30.415Z,556.00
2018-10-12T06:13:30.377Z,568.00
2018-10-12T06:14:30.387Z,580.00
2018-10-12T06:15:30.825Z,592.00
2018-10-12T06:16:30.343Z,600.00
2018-10-12T06:17:30.360Z,612.00
2018-10-12T06:18:30.327Z,628.00
2018-10-12T06:19:30.295Z,640.00
2018-10-12T06:20:30.303Z,648.00
2018-10-12T06:21:30.356Z,660.00
2018-10-12T06:22:30.294Z,672.00
2018-10-12T06:23:30.248Z,680.00
2018-10-12T06:24:30.355Z,688.00
2018-10-12T06:25:30.234Z,696.00
2018-10-12T06:26:30.220Z,708.00
2018-10-12T06:27:30.248Z,716.00
2018-10-12T06:28:30.221Z,724.00
2018-10-12T06:29:30.180Z,736.00
2018-10-12T06:30:30.346Z,748.00
2018-10-12T06:31:30.347Z,760.00
2018-10-12T06:32:30.351Z,768.00
2018-10-12T06:33:30.168Z,776.00
2018-10-12T06:34:30.131Z,784.00
2018-10-12T06:35:30.113Z,796.00
2018-10-12T06:36:30.275Z,804.00
2018-10-12T06:37:30.093Z,820.00
2018-10-12T06:38:30.248Z,828.00
2018-10-12T06:39:30.098Z,832.00
2018-10-12T06:40:30.058Z,840.00
2018-10-12T06:41:30.189Z,848.00
2018-10-12T06:42:30.042Z,860.00
2018-10-12T06:43:30.064Z,868.00
2018-10-12T06:44:30.281Z,876.00
2018-10-12T06:45:30.058Z,888.00
2018-10-12T06:46:30.020Z,900.00
2018-10-12T06:47:29.979Z,904.00
2018-10-12T06:48:30.007Z,916.00
2018-10-12T06:49:29.974Z,924.00
2018-10-12T06:50:29.947Z,932.00
2018-10-12T06:51:29.939Z,940.00
2018-10-12T06:52:29.961Z,948.00
2018-10-12T06:53:29.944Z,952.00
2018-10-12T06:54:29.972Z,960.00
2018-10-12T06:55:29.891Z,968.00
2018-10-12T06:56:29.884Z,980.00
2018-10-12T06:57:29.886Z,984.00
2018-10-12T06:58:29.859Z,992.00
2018-10-12T06:59:29.874Z,1004.00
2018-10-12T07:00:29.839Z,1012.00
2018-10-12T07:01:29.826Z,1024.00
2018-10-12T07:02:29.841Z,1036.00
2018-10-12T07:03:29.805Z,1044.00
2018-10-12T07:04:29.830Z,1056.00
2018-10-12T07:05:29.808Z,1064.00
2018-10-12T07:06:29.772Z,1072.00
2018-10-12T07:07:29.762Z,1080.00
2018-10-12T07:08:29.751Z,1088.00
2018-10-12T07:09:29.764Z,1100.00
2018-10-12T07:10:29.769Z,1112.00
2018-10-12T07:11:29.718Z,1124.00
2018-10-12T07:12:29.738Z,1136.00
2018-10-12T07:13:29.690Z,1148.00
2018-10-12T07:14:29.721Z,1164.00
2018-10-12T07:15:29.793Z,1176.00
2018-10-12T07:16:29.718Z,1192.00
2018-10-12T07:17:29.650Z,1204.00
2018-10-12T07:18:29.644Z,1212.00
2018-10-12T07:19:29.709Z,1228.00
2018-10-12T07:20:29.613Z,1236.00
2018-10-12T07:21:29.639Z,1248.00
2018-10-12T07:22:29.654Z,1264.00
2018-10-12T07:23:29.580Z,1280.00
2018-10-12T07:24:29.616Z,1300.00
2018-10-12T07:25:29.558Z,1316.00
2018-10-12T07:26:29.572Z,1332.00
2018-10-12T07:27:29.534Z,1348.00
2018-10-12T07:28:29.588Z,1368.00
2018-10-12T07:29:29.521Z,1392.00
2018-10-12T07:30:29.500Z,1412.00
2018-10-12T07:31:29.536Z,1424.00
2018-10-12T07:32:29.519Z,1436.00
2018-10-12T07:33:29.467Z,1456.00
2018-10-12T07:34:29.457Z,1476.00
2018-10-12T07:35:29.446Z,1496.00
2018-10-12T07:36:29.435Z,1524.00
2018-10-12T07:37:29.511Z,1560.00
2018-10-12T07:38:29.416Z,1584.00
2018-10-12T07:39:29.425Z,1608.00
2018-10-12T07:40:29.394Z,1632.00
2018-10-12T07:41:29.410Z,1660.00
2018-10-12T07:42:29.449Z,1688.00
2018-10-12T07:43:29.357Z,1720.00
2018-10-12T07:44:29.353Z,1756.00
2018-10-12T07:45:29.336Z,1788.00
2018-10-12T07:46:29.360Z,1820.00
2018-10-12T07:47:29.358Z,1848.00
2018-10-12T07:48:29.304Z,1876.00
2018-10-12T07:49:29.289Z,1908.00
2018-10-12T07:50:29.286Z,1944.00
2018-10-12T07:51:29.293Z,1964.00
2018-10-12T07:52:29.264Z,1984.00
2018-10-12T07:53:29.321Z,2008.00
2018-10-12T07:54:29.260Z,2032.00
2018-10-12T07:55:29.220Z,2052.00
2018-10-12T07:56:29.211Z,2072.00
2018-10-12T07:57:29.239Z,2092.00
2018-10-12T07:58:29.238Z,2112.00
2018-10-12T07:59:29.183Z,2128.00
2018-10-12T08:00:29.195Z,2148.00
2018-10-12T08:01:29.156Z,2168.00
2018-10-12T08:02:29.174Z,2188.00
2018-10-12T08:03:29.140Z,2212.00
2018-10-12T08:04:29.123Z,2228.00
2018-10-12T08:05:29.119Z,2248.00
2018-10-12T08:06:29.161Z,2272.00
2018-10-12T08:07:29.159Z,2296.00
2018-10-12T08:08:29.081Z,2312.00
2018-10-12T08:09:29.111Z,2332.00
2018-10-12T08:10:29.209Z,2364.00
2018-10-12T08:11:29.045Z,2396.00
2018-10-12T08:12:29.036Z,2428.00
2018-10-12T08:13:29.030Z,2456.00
2018-10-12T08:14:29.051Z,2484.00
2018-10-12T08:15:29.003Z,2500.00
2018-10-12T08:16:29.005Z,2524.00
2018-10-12T08:17:28.977Z,2548.00
2018-10-12T08:18:28.971Z,2560.00
2018-10-12T08:19:29.019Z,2584.00
2018-10-12T08:20:29.061Z,2600.00
2018-10-12T08:21:28.935Z,2616.00
2018-10-12T08:22:28.974Z,2636.00
2018-10-12T08:23:28.921Z,2656.00
2018-10-12T08:24:28.960Z,2672.00
2018-10-12T08:25:28.893Z,2700.00
2018-10-12T08:26:28.879Z,2716.00
2018-10-12T08:27:28.981Z,2736.00
2018-10-12T08:28:28.857Z,2764.00
2018-10-12T08:29:28.872Z,2788.00
2018-10-12T08:30:28.884Z,2820.00
2018-10-12T08:31:28.940Z,2848.00
2018-10-12T08:32:28.811Z,2872.00
2018-10-12T08:33:28.801Z,2896.00
2018-10-12T08:34:28.790Z,2948.00
2018-10-12T08:35:28.821Z,2952.00
2018-10-12T08:36:28.881Z,2972.00
2018-10-12T08:37:28.761Z,2996.00
2018-10-12T08:38:28.744Z,3016.00
2018-10-12T08:39:28.735Z,3032.00
2018-10-12T08:40:28.757Z,3052.00
2018-10-12T08:41:28.743Z,3080.00
2018-10-12T08:42:28.702Z,3096.00
2018-10-12T08:43:28.689Z,3124.00
2018-10-12T08:44:28.677Z,3140.00
2018-10-12T08:45:28.695Z,3160.00
2018-10-12T08:46:28.660Z,3184.00
2018-10-12T08:47:28.844Z,3188.00
2018-10-12T08:48:29.002Z,3208.00
2018-10-12T08:49:28.622Z,3228.00
2018-10-12T08:50:28.612Z,3308.00
2018-10-12T08:51:28.599Z,3296.00
2018-10-12T08:52:28.618Z,3328.00
2018-10-12T08:53:28.579Z,3376.00
2018-10-12T08:54:28.570Z,3368.00
2018-10-12T08:55:28.610Z,3404.00
2018-10-12T08:56:28.632Z,3444.00
2018-10-12T08:57:28.638Z,3472.00
2018-10-12T08:58:28.554Z,3532.00
2018-10-12T08:59:28.515Z,3560.00
2018-10-12T09:00:28.507Z,3584.00
2018-10-12T09:01:28.538Z,3640.00
2018-10-12T09:02:28.484Z,3644.00
2018-10-12T09:03:28.520Z,3648.00
2018-10-12T09:04:28.457Z,3680.00
2018-10-12T09:05:28.452Z,3700.00
2018-10-12T09:06:28.442Z,3732.00
2018-10-12T09:07:28.560Z,3776.00
2018-10-12T09:08:28.518Z,3796.00
2018-10-12T09:09:28.418Z,3792.00
2018-10-12T09:10:28.404Z,3816.00
2018-10-12T09:11:28.396Z,3820.00
2018-10-12T09:12:28.371Z,3840.00
2018-10-12T09:13:28.385Z,3872.00
2018-10-12T09:14:28.381Z,3888.00
2018-10-12T09:15:28.340Z,3896.00
2018-10-12T09:16:28.415Z,3908.00
2018-10-12T09:17:28.318Z,3932.00
2018-10-12T09:18:28.361Z,3972.00
2018-10-12T09:19:28.340Z,3968.00
2018-10-12T09:20:28.424Z,3988.00
2018-10-12T09:21:28.284Z,3984.00
2018-10-12T09:22:28.257Z,4000.00
2018-10-12T09:23:28.249Z,4004.00
2018-10-12T09:24:28.266Z,4032.00
2018-10-12T09:25:28.241Z,4024.00
2018-10-12T09:26:28.216Z,4052.00
2018-10-12T09:27:28.254Z,4040.00
2018-10-12T09:28:28.194Z,4064.00
2018-10-12T09:29:28.209Z,4076.00
2018-10-12T09:30:28.236Z,4064.00
2018-10-12T09:31:28.163Z,4088.00
2018-10-12T09:32:28.146Z,4092.00
2018-10-12T09:33:28.141Z,4076.00
2018-10-12T09:34:28.168Z,4104.00
2018-10-12T09:35:28.114Z,4104.00
2018-10-12T09:36:28.118Z,4124.00
2018-10-12T09:37:28.097Z,4096.00
2018-10-12T09:38:28.081Z,4136.00
2018-10-12T09:39:28.103Z,4140.00
2018-10-12T09:40:28.123Z,4148.00
2018-10-12T09:41:28.048Z,4196.00
2018-10-12T09:42:28.040Z,4200.00
2018-10-12T09:43:28.038Z,4240.00
2018-10-12T09:44:28.018Z,4228.00
2018-10-12T09:45:28.050Z,4236.00
2018-10-12T09:46:27.997Z,4220.00
2018-10-12T09:47:27.989Z,4224.00
2018-10-12T09:48:27.972Z,4232.00
2018-10-12T09:49:27.965Z,4252.00
2018-10-12T09:50:27.998Z,4288.00
2018-10-12T09:51:27.937Z,4296.00
2018-10-12T09:52:28.031Z,4300.00
2018-10-12T09:53:27.915Z,4324.00
2018-10-12T09:54:27.904Z,4316.00
2018-10-12T09:55:27.940Z,4328.00
2018-10-12T09:56:27.882Z,4324.00
2018-10-12T09:57:27.871Z,4332.00
2018-10-12T09:58:27.863Z,4340.00
2018-10-12T09:59:27.852Z,4368.00
2018-10-12T10:00:28.156Z,4356.00
2018-10-12T10:01:27.873Z,4376.00
2018-10-12T10:02:27.850Z,4392.00
2018-10-12T10:03:27.806Z,4392.00
2018-10-12T10:04:27.796Z,4408.00
2018-10-12T10:05:27.834Z,4396.00
2018-10-12T10:06:27.773Z,4416.00
2018-10-12T10:07:27.840Z,4412.00
2018-10-12T10:08:27.885Z,4396.00
2018-10-12T10:09:27.741Z,4364.00
2018-10-12T10:10:27.757Z,4396.00
2018-10-12T10:11:27.745Z,4392.00
2018-10-12T10:12:27.709Z,4380.00
2018-10-12T10:13:27.857Z,4356.00
2018-10-12T10:14:27.714Z,4384.00
2018-10-12T10:15:27.877Z,4300.00
2018-10-12T10:16:28.686Z,4340.00
2018-10-12T10:17:27.682Z,4296.00
2018-10-12T10:18:27.664Z,4388.00
2018-10-12T10:19:27.785Z,4396.00
2018-10-12T10:20:27.632Z,4396.00
2018-10-12T10:21:27.659Z,4372.00
2018-10-12T10:22:27.686Z,4380.00
2018-10-12T10:23:27.596Z,4368.00
2018-10-12T10:24:27.615Z,4380.00
2018-10-12T10:25:27.575Z,4344.00
2018-10-12T10:26:27.561Z,4304.00
2018-10-12T10:27:27.550Z,4332.00
2018-10-12T10:28:27.564Z,4324.00
2018-10-12T10:29:27.543Z,4356.00
2018-10-12T10:30:27.516Z,4352.00
2018-10-12T10:31:27.512Z,4360.00
2018-10-12T10:32:27.498Z,4364.00
2018-10-12T10:33:27.516Z,4360.00
2018-10-12T10:34:27.472Z,4384.00
2018-10-12T10:35:27.464Z,4384.00
2018-10-12T10:36:27.449Z,4376.00
2018-10-12T10:37:27.439Z,4376.00
2018-10-12T10:38:27.461Z,4356.00
2018-10-12T10:39:27.421Z,4368.00
2018-10-12T10:40:27.410Z,4368.00
2018-10-12T10:41:27.425Z,4364.00
2018-10-12T10:42:27.384Z,4356.00
2018-10-12T10:43:27.373Z,4356.00
2018-10-12T10:44:27.384Z,4328.00
2018-10-12T10:45:27.377Z,4376.00
2018-10-12T10:46:27.495Z,4352.00
2018-10-12T10:47:27.384Z,4372.00
2018-10-12T10:48:27.319Z,4376.00
2018-10-12T10:49:27.312Z,4364.00
2018-10-12T10:50:27.361Z,4324.00
2018-10-12T10:51:27.344Z,4300.00
2018-10-12T10:52:27.290Z,4272.00
2018-10-12T10:53:27.314Z,4296.00
2018-10-12T10:54:27.258Z,4288.00
2018-10-12T10:55:27.253Z,4260.00
2018-10-12T10:56:27.241Z,4292.00
2018-10-12T10:57:27.253Z,4296.00
2018-10-12T10:58:27.209Z,4284.00
2018-10-12T10:59:27.347Z,4264.00
2018-10-12T11:00:27.200Z,4284.00
2018-10-12T11:01:27.176Z,4272.00
2018-10-12T11:02:27.220Z,4272.00
2018-10-12T11:03:27.154Z,4312.00
2018-10-12T11:04:27.143Z,4300.00
2018-10-12T11:05:27.165Z,4324.00
2018-10-12T11:06:27.187Z,4300.00
2018-10-12T11:07:27.149Z,4088.00
2018-10-12T11:08:27.100Z,4272.00
2018-10-12T11:09:27.090Z,4348.00
2018-10-12T11:10:27.098Z,4244.00
2018-10-12T11:11:27.109Z,4332.00
2018-10-12T11:12:27.096Z,4356.00
2018-10-12T11:13:27.298Z,4328.00
2018-10-12T11:14:27.068Z,4348.00
2018-10-12T11:15:27.123Z,4352.00
2018-10-12T11:16:27.071Z,4368.00
2018-10-12T11:17:27.003Z,4364.00
2018-10-12T11:18:27.020Z,4304.00
2018-10-12T11:19:27.027Z,4340.00
2018-10-12T11:20:26.972Z,4356.00
2018-10-12T11:21:26.961Z,4388.00
2018-10-12T11:22:26.951Z,4356.00
2018-10-12T11:23:27.092Z,4316.00
2018-10-12T11:24:27.043Z,4400.00
2018-10-12T11:25:26.918Z,4416.00
2018-10-12T11:26:27.001Z,4412.00
2018-10-12T11:27:26.897Z,4380.00
2018-10-12T11:28:27.073Z,4380.00
2018-10-12T11:29:26.876Z,4396.00
2018-10-12T11:30:26.986Z,4400.00
2018-10-12T11:31:26.862Z,4412.00
2018-10-12T11:32:26.845Z,4416.00
2018-10-12T11:33:26.873Z,4428.00
2018-10-12T11:34:26.823Z,4440.00
2018-10-12T11:35:26.814Z,4464.00
2018-10-12T11:36:26.806Z,4408.00
2018-10-12T11:37:26.849Z,4452.00
2018-10-12T11:38:26.858Z,4432.00
2018-10-12T11:39:26.792Z,4452.00
2018-10-12T11:40:26.758Z,4436.00
2018-10-12T11:41:26.761Z,4472.00
2018-10-12T11:42:26.734Z,4476.00
2018-10-12T11:43:27.080Z,4376.00
2018-10-12T11:44:26.748Z,4360.00
2018-10-12T11:45:26.734Z,4456.00
2018-10-12T11:46:26.705Z,4500.00
2018-10-12T11:47:26.778Z,4476.00
2018-10-12T11:48:26.669Z,4492.00
2018-10-12T11:49:26.714Z,4504.00
2018-10-12T11:50:26.667Z,4476.00
2018-10-12T11:51:26.637Z,4500.00
2018-10-12T11:52:26.633Z,4532.00
2018-10-12T11:53:26.616Z,4520.00
2018-10-12T11:54:26.632Z,4540.00
2018-10-12T11:55:26.594Z,4524.00
2018-10-12T11:56:26.587Z,4524.00
2018-10-12T11:57:26.575Z,4528.00
2018-10-12T11:58:26.578Z,4504.00
2018-10-12T11:59:26.583Z,4500.00
2018-10-12T12:00:26.540Z,4532.00
2018-10-12T12:01:26.538Z,4536.00
2018-10-12T12:02:26.537Z,4544.00
2018-10-12T12:03:26.524Z,4548.00
2018-10-12T12:04:26.532Z,4528.00
2018-10-12T12:05:26.521Z,4524.00
2018-10-12T12:06:26.600Z,4480.00
2018-10-12T12:07:26.474Z,4528.00
2018-10-12T12:08:26.471Z,4536.00
2018-10-12T12:09:26.451Z,4504.00
2018-10-12T12:10:26.474Z,4480.00
2018-10-12T12:11:26.422Z,4500.00
2018-10-12T12:12:26.413Z,4520.00
2018-10-12T12:13:26.482Z,4460.00
2018-10-12T12:14:26.394Z,4496.00
2018-10-12T12:15:26.420Z,4448.00
2018-10-12T12:16:26.410Z,4312.00
2018-10-12T12:17:26.358Z,4152.00
2018-10-12T12:18:26.349Z,4552.00
2018-10-12T12:19:26.494Z,4536.00
2018-10-12T12:20:26.376Z,4524.00
2018-10-12T12:21:26.314Z,4556.00
2018-10-12T12:22:26.305Z,4552.00
2018-10-12T12:23:26.296Z,4528.00
2018-10-12T12:24:26.323Z,4544.00
2018-10-12T12:25:26.311Z,4548.00
2018-10-12T12:26:26.273Z,4524.00
2018-10-12T12:27:26.295Z,4548.00
2018-10-12T12:28:26.242Z,4540.00
2018-10-12T12:29:26.246Z,4548.00
2018-10-12T12:30:26.225Z,4536.00
2018-10-12T12:31:26.241Z,4532.00
2018-10-12T12:32:26.230Z,4488.00
2018-10-12T12:33:26.190Z,4468.00
2018-10-12T12:34:26.189Z,4476.00
2018-10-12T12:35:26.529Z,4500.00
2018-10-12T12:36:26.176Z,4460.00
2018-10-12T12:37:26.187Z,4456.00
2018-10-12T12:38:26.147Z,4432.00